createdAt,value
2023-02-23T00:03:58.729Z,18.48
2023-02-23T00:09:01.267Z,20.85
2023-02-23T00:14:03.516Z,18.17
2023-02-23T00:19:07.991Z,17.45
2023-02-23T00:24:15.205Z,20.02
2023-02-23T00:29:22.285Z,19.08
2023-02-23T00:34:23.982Z,20.33
2023-02-23T00:39:29.094Z,20.15
2023-02-23T00:44:33.700Z,17.13
2023-02-23T00:49:35.605Z,23.08
2023-02-23T00:54:37.606Z,20.50
2023-02-23T00:59:39.082Z,21.08
2023-02-23T01:04:40.655Z,21.58
2023-02-23T01:09:42.212Z,21.85
2023-02-23T01:14:43.667Z,20.02
2023-02-23T01:19:45.156Z,21.67
2023-02-23T01:24:46.944Z,20.20
2023-02-23T01:29:48.413Z,23.00
2023-02-23T01:34:49.814Z,19.42
2023-02-23T01:39:51.224Z,20.42
2023-02-23T01:44:52.594Z,19.45
2023-02-23T01:49:54.201Z,22.10
2023-02-23T01:54:55.948Z,21.17
2023-02-23T01:59:57.546Z,24.73
2023-02-23T02:05:00.340Z,24.45
2023-02-23T02:10:11.360Z,20.13
2023-02-23T02:15:17.732Z,20.27
2023-02-23T02:20:58.328Z,23.70
2023-02-23T02:26:09.845Z,19.23
2023-02-23T02:31:49.693Z,21.73
2023-02-23T02:37:02.522Z,24.60
2023-02-23T02:42:06.896Z,24.88
2023-02-23T02:47:16.640Z,21.85
2023-02-23T02:52:29.438Z,19.67
2023-02-23T02:57:33.066Z,20.67
2023-02-23T03:02:59.485Z,20.33
2023-02-23T03:08:22.528Z,19.45
2023-02-23T03:13:54.792Z,19.38
2023-02-23T03:19:39.180Z,17.67
2023-02-23T03:25:09.701Z,18.15
2023-02-23T03:36:17.312Z,18.40
2023-02-23T03:41:41.376Z,19.80
2023-02-23T03:47:04.643Z,19.02
2023-02-23T03:52:38.118Z,20.80
2023-02-23T03:58:01.992Z,22.73
2023-02-23T04:03:25.988Z,19.15
2023-02-23T04:08:54.522Z,20.20
2023-02-23T04:14:00.527Z,19.95
2023-02-23T04:19:01.935Z,20.67
2023-02-23T04:24:03.517Z,20.25
2023-02-23T04:29:04.910Z,18.77
2023-02-23T04:34:06.370Z,18.92
2023-02-23T04:39:07.803Z,19.10
2023-02-23T04:44:09.243Z,16.35
2023-02-23T04:49:11.160Z,17.83
2023-02-23T04:54:12.599Z,17.65
2023-02-23T04:59:14.230Z,15.30
2023-02-23T05:04:15.708Z,16.38
2023-02-23T05:09:17.511Z,14.40
2023-02-23T05:14:19.024Z,16.85
2023-02-23T05:19:20.665Z,14.80
2023-02-23T05:24:22.111Z,13.32
2023-02-23T05:29:24.671Z,12.70
2023-02-23T05:34:26.426Z,15.10
2023-02-23T05:39:27.907Z,18.73
2023-02-23T05:44:30.446Z,14.13
2023-02-23T05:49:31.926Z,14.32
2023-02-23T05:54:33.416Z,12.50
2023-02-23T05:59:34.957Z,16.00
2023-02-23T06:04:36.476Z,13.60
2023-02-23T06:09:37.907Z,14.43
2023-02-23T06:14:39.394Z,14.43
2023-02-23T06:19:40.792Z,16.98
2023-02-23T06:24:42.228Z,13.45
2023-02-23T06:29:44.433Z,12.32
2023-02-23T06:34:46.503Z,12.88
2023-02-23T06:39:48.254Z,15.05
2023-02-23T06:44:50.070Z,13.65
2023-02-23T06:49:51.486Z,13.18
2023-02-23T06:54:52.950Z,11.25
2023-02-23T06:59:54.421Z,14.05
2023-02-23T07:04:55.922Z,12.93
2023-02-23T07:09:57.336Z,12.73
2023-02-23T07:14:58.936Z,14.75
2023-02-23T07:20:00.373Z,14.43
2023-02-23T07:25:01.955Z,11.55
2023-02-23T07:30:03.855Z,13.00
2023-02-23T07:35:06.486Z,14.20
2023-02-23T07:40:09.582Z,15.38
2023-02-23T07:45:11.913Z,13.45
2023-02-23T07:50:14.734Z,13.13
2023-02-23T07:55:18.124Z,14.63
2023-02-23T08:00:19.883Z,13.25
2023-02-23T08:05:21.531Z,13.00
2023-02-23T08:10:24.667Z,13.80
2023-02-23T08:15:26.198Z,14.05
2023-02-23T08:20:27.793Z,13.10
2023-02-23T08:25:29.225Z,11.93
2023-02-23T08:30:31.790Z,12.57
2023-02-23T08:35:33.395Z,11.13
2023-02-23T08:40:35.054Z,10.73
2023-02-23T08:45:39.114Z,11.27
2023-02-23T08:50:40.972Z,10.88
2023-02-23T08:55:42.581Z,12.73
2023-02-23T09:00:44.776Z,11.20
2023-02-23T09:05:47.099Z,11.93
2023-02-23T09:10:48.792Z,10.48
2023-02-23T09:15:50.287Z,11.80
2023-02-23T09:20:52.128Z,10.45
2023-02-23T09:25:53.814Z,12.27
2023-02-23T09:30:56.461Z,11.80
2023-02-23T09:35:58.088Z,11.02
2023-02-23T09:40:59.625Z,12.48
2023-02-23T09:46:22.149Z,11.20
2023-02-23T09:51:25.463Z,10.98
2023-02-23T09:56:36.004Z,11.98
2023-02-23T10:01:47.256Z,11.10
2023-02-23T10:07:09.906Z,11.70
2023-02-23T10:12:22.121Z,11.50
2023-02-23T10:17:43.846Z,12.00
2023-02-23T10:22:51.533Z,13.00
2023-02-23T10:27:56.095Z,11.55
2023-02-23T10:33:03.839Z,12.73
2023-02-23T10:38:05.959Z,10.95
2023-02-23T10:43:07.567Z,11.65
2023-02-23T10:48:17.190Z,11.45
2023-02-23T10:53:36.024Z,10.40
2023-02-23T10:58:47.717Z,12.32
2023-02-23T11:03:57.627Z,12.38
2023-02-23T11:09:41.322Z,10.95
2023-02-23T11:14:46.252Z,11.17
2023-02-23T11:19:47.741Z,9.85
2023-02-23T11:24:49.749Z,12.15
2023-02-23T11:29:55.896Z,11.05
2023-02-23T11:35:21.592Z,11.18
2023-02-23T11:40:27.863Z,11.00
2023-02-23T11:45:33.772Z,11.45
2023-02-23T11:50:36.497Z,9.98
2023-02-23T11:55:38.677Z,10.75
2023-02-23T12:00:40.378Z,11.15
2023-02-23T12:05:52.774Z,11.75
2023-02-23T12:10:57.861Z,10.70
2023-02-23T12:16:06.455Z,12.27
2023-02-23T12:21:35.847Z,10.55
2023-02-23T12:27:00.595Z,10.75
2023-02-23T12:32:10.476Z,9.73
2023-02-23T12:37:29.286Z,10.43
2023-02-23T12:43:08.806Z,10.85
2023-02-23T12:48:35.818Z,9.23
2023-02-23T12:53:37.460Z,9.50
2023-02-23T12:59:14.365Z,9.20
2023-02-23T13:04:34.582Z,10.82
2023-02-23T13:09:35.932Z,9.73
2023-02-23T13:14:51.493Z,9.50
2023-02-23T13:19:58.820Z,9.65
2023-02-23T13:25:05.192Z,8.95
2023-02-23T13:30:11.182Z,9.15
2023-02-23T13:35:19.173Z,9.48
2023-02-23T13:40:41.299Z,8.75
2023-02-23T13:45:49.493Z,10.57
2023-02-23T13:51:42.602Z,9.68
2023-02-23T13:56:49.025Z,9.65
2023-02-23T14:01:55.893Z,10.07
2023-02-23T14:07:11.814Z,7.80
2023-02-23T14:12:19.079Z,6.60
2023-02-23T14:17:20.848Z,6.63
2023-02-23T14:22:22.506Z,5.90
2023-02-23T14:27:41.296Z,5.22
2023-02-23T14:32:47.092Z,5.32
2023-02-23T14:37:59.568Z,5.72
2023-02-23T14:43:03.652Z,5.65
2023-02-23T14:48:08.335Z,5.72
2023-02-23T14:53:22.081Z,5.63
2023-02-23T14:58:27.309Z,5.40
2023-02-23T15:03:28.833Z,5.22
2023-02-23T15:08:31.984Z,7.22
2023-02-23T15:13:40.195Z,5.65
2023-02-23T15:19:32.156Z,4.72
2023-02-23T15:24:43.547Z,7.28
2023-02-23T15:29:46.438Z,5.30
2023-02-23T15:34:48.480Z,4.80
2023-02-23T15:39:54.584Z,5.45
2023-02-23T15:45:13.854Z,5.43
2023-02-23T15:50:41.355Z,5.30
2023-02-23T15:55:43.670Z,5.60
2023-02-23T16:00:54.408Z,5.40
2023-02-23T16:06:05.163Z,6.35
2023-02-23T16:11:19.045Z,6.15
2023-02-23T16:16:26.068Z,6.50
2023-02-23T16:21:34.755Z,8.35
2023-02-23T16:26:57.321Z,9.38
2023-02-23T16:32:03.592Z,8.90
2023-02-23T16:37:17.749Z,7.30
2023-02-23T16:42:33.774Z,7.50
2023-02-23T16:47:42.048Z,11.02
2023-02-23T16:52:46.192Z,10.02
2023-02-23T16:57:52.089Z,8.32
2023-02-23T17:02:53.674Z,8.00
2023-02-23T17:07:56.746Z,8.35
2023-02-23T17:13:02.605Z,8.00
2023-02-23T17:18:04.930Z,8.90
2023-02-23T17:23:06.511Z,11.40
2023-02-23T17:28:08.251Z,13.73
2023-02-23T17:33:10.328Z,12.30
2023-02-23T17:38:12.422Z,11.13
2023-02-23T17:43:13.866Z,15.38
2023-02-23T17:48:16.414Z,18.25
2023-02-23T17:53:17.855Z,15.38
2023-02-23T17:58:19.800Z,12.07
2023-02-23T18:03:21.364Z,13.27
2023-02-23T18:08:22.830Z,15.75
2023-02-23T18:13:25.734Z,12.93
2023-02-23T18:18:28.209Z,18.00
2023-02-23T18:23:32.734Z,14.23
2023-02-23T18:28:35.076Z,14.20
2023-02-23T18:33:36.500Z,13.52
2023-02-23T18:38:37.953Z,11.50
2023-02-23T18:43:39.442Z,11.52
2023-02-23T18:48:42.177Z,9.15
2023-02-23T18:53:44.485Z,14.02
2023-02-23T18:58:45.974Z,10.77
2023-02-23T19:03:48.614Z,9.88
2023-02-23T19:08:55.302Z,12.15
2023-02-23T19:14:00.050Z,11.55
2023-02-23T19:19:04.258Z,9.75
2023-02-23T19:24:06.821Z,9.68
2023-02-23T19:29:09.223Z,21.05
2023-02-23T19:34:10.804Z,13.77
2023-02-23T19:39:15.463Z,12.32
2023-02-23T19:44:18.571Z,10.63
2023-02-23T19:49:19.974Z,9.13
2023-02-23T19:54:21.448Z,10.40
2023-02-23T19:59:23.308Z,9.57
2023-02-23T20:04:24.791Z,11.50
2023-02-23T20:09:26.262Z,16.75
2023-02-23T20:14:27.839Z,18.15
2023-02-23T20:19:30.026Z,11.35
2023-02-23T20:24:31.537Z,12.60
2023-02-23T20:29:34.300Z,11.85
2023-02-23T20:34:35.946Z,11.80
2023-02-23T20:39:37.384Z,12.25
2023-02-23T20:44:38.773Z,13.32
2023-02-23T20:49:41.292Z,13.38
2023-02-23T20:54:42.777Z,13.48
2023-02-23T20:59:44.255Z,15.25
2023-02-23T21:04:45.699Z,13.63
2023-02-23T21:09:47.128Z,12.95
2023-02-23T21:14:48.812Z,11.95
2023-02-23T21:19:50.374Z,13.77
2023-02-23T21:24:51.808Z,13.60
2023-02-23T21:29:55.398Z,11.45
2023-02-23T21:34:57.966Z,10.52
2023-02-23T21:39:59.375Z,14.27
2023-02-23T21:45:01.029Z,14.80
2023-02-23T21:50:03.101Z,11.18
2023-02-23T21:55:07.778Z,9.75
2023-02-23T22:00:16.332Z,8.82
2023-02-23T22:05:19.180Z,12.27
2023-02-23T22:10:22.771Z,10.43
2023-02-23T22:15:27.165Z,12.45
2023-02-23T22:20:28.657Z,12.07
2023-02-23T22:25:30.074Z,9.55
2023-02-23T22:30:31.493Z,10.45
2023-02-23T22:35:32.963Z,11.27
2023-02-23T22:40:35.288Z,10.27
2023-02-23T22:45:37.751Z,11.20
2023-02-23T22:50:39.205Z,12.88
2023-02-23T22:55:46.486Z,11.77
2023-02-23T23:01:02.418Z,14.00
2023-02-23T23:06:08.713Z,11.15
2023-02-23T23:11:14.018Z,11.85
2023-02-23T23:16:31.052Z,12.27
2023-02-23T23:21:34.583Z,13.57
2023-02-23T23:26:39.724Z,13.77
2023-02-23T23:31:45.392Z,14.95
2023-02-23T23:36:52.892Z,15.90
2023-02-23T23:41:54.733Z,15.80
2023-02-23T23:46:57.989Z,17.63
2023-02-23T23:51:59.831Z,14.98
2023-02-23T23:57:01.617Z,16.55
